Time;durP1;ratioP1;P1;durP2;ratioP2;P2;SDS_P1;SDS_P2;PMS_P1;PMS_P2;Temp;Humidity;BMP_temperature;BMP_pressure;BME280_temperature;BME280_humidity;BME280_pressure;Samples;Min_cycle;Max_cycle;Signal;HPM_P1;HPM_P2
2021/10/07 00:00:11;;;;;;;;;10.67;10.33;;;;;;;;5159068;27;8792;-82
2021/10/07 00:02:37;;;;;;;;;10.00;10.00;;;;;;;;5159385;27;8806;-82
2021/10/07 00:05:02;;;;;;;;;11.00;10.00;;;;;;;;5159295;27;8769;-82
2021/10/07 00:07:28;;;;;;;;;20.33;19.33;;;;;;;;5159014;27;8808;-83
2021/10/07 00:09:53;;;;;;;;;25.00;21.67;;;;;;;;5159251;27;8774;-83
2021/10/07 00:12:18;;;;;;;;;19.33;19.33;;;;;;;;5159168;27;8936;-82
2021/10/07 00:14:43;;;;;;;;;15.67;15.67;;;;;;;;5159116;27;8786;-82
2021/10/07 00:17:09;;;;;;;;;17.33;17.00;;;;;;;;5159007;27;8836;-83
2021/10/07 00:19:34;;;;;;;;;20.67;19.00;;;;;;;;5157591;27;8814;-83
2021/10/07 00:21:59;;;;;;;;;18.33;17.00;;;;;;;;5158858;27;8809;-82
2021/10/07 00:24:24;;;;;;;;;17.00;15.33;;;;;;;;5159095;27;8794;-83
2021/10/07 00:26:50;;;;;;;;;19.33;18.33;;;;;;;;5159003;27;8812;-82
2021/10/07 00:29:32;;;;;;;;;17.33;17.33;;;;;;;;5157244;27;9137;-83
2021/10/07 00:32:02;;;;;;;;;18.00;17.50;;;;;;;;5117741;27;8798;-83
2021/10/07 00:34:43;;;;;;;;;15.75;14.75;;;;;;;;5117530;27;8779;-83
2021/10/07 00:39:45;;;;;;;;;13.75;12.75;;;;;;;;5117393;27;8775;-83
2021/10/07 00:42:11;;;;;;;;;12.33;12.33;;;;;;;;5117018;27;8930;-82
2021/10/07 00:44:39;;;;;;;;;14.67;12.33;;;;;;;;5117121;27;8896;-82
2021/10/07 00:47:05;;;;;;;;;14.00;13.25;;;;;;;;5117413;27;8794;-82
2021/10/07 00:49:32;;;;;;;;;13.00;13.00;;;;;;;;5117204;27;8791;-83
2021/10/07 00:51:58;;;;;;;;;12.75;12.75;;;;;;;;5115941;28;8791;-82
2021/10/07 00:54:25;;;;;;;;;11.00;11.00;;;;;;;;5117416;27;8802;-83
2021/10/07 00:56:51;;;;;;;;;12.75;10.75;;;;;;;;5117081;27;8868;-82
2021/10/07 00:59:16;;;;;;;;;13.33;10.33;;;;;;;;5117012;27;8779;-82
2021/10/07 01:01:41;;;;;;;;;10.33;10.33;;;;;;;;5117227;27;8895;-82
2021/10/07 01:04:07;;;;;;;;;12.00;11.00;;;;;;;;5117054;27;8783;-82
2021/10/07 01:06:32;;;;;;;;;11.67;10.00;;;;;;;;5098704;28;8832;-82
2021/10/07 01:08:58;;;;;;;;;12.00;12.00;;;;;;;;5115715;28;8787;-83
2021/10/07 01:11:24;;;;;;;;;11.75;11.50;;;;;;;;5116999;27;8815;-83
2021/10/07 01:13:49;;;;;;;;;9.67;8.67;;;;;;;;5116956;27;8869;-83
2021/10/07 01:16:17;;;;;;;;;12.00;10.00;;;;;;;;5116988;27;8866;-82
2021/10/07 01:18:43;;;;;;;;;11.67;11.67;;;;;;;;5116804;27;8806;-82
2021/10/07 01:21:12;;;;;;;;;11.00;10.67;;;;;;;;5116717;27;8799;-83
2021/10/07 01:23:39;;;;;;;;;15.50;11.50;;;;;;;;5117041;27;8775;-83
2021/10/07 01:26:05;;;;;;;;;11.50;11.25;;;;;;;;5116726;27;8734;-82
2021/10/07 01:28:30;;;;;;;;;13.00;11.00;;;;;;;;5115423;28;8787;-82
2021/10/07 01:30:55;;;;;;;;;13.00;11.00;;;;;;;;5144437;27;8802;-83
2021/10/07 01:33:20;;;;;;;;;12.00;10.33;;;;;;;;5158140;27;8809;-83
2021/10/07 01:35:46;;;;;;;;;11.67;10.33;;;;;;;;5158035;27;8758;-83
2021/10/07 01:38:11;;;;;;;;;11.00;11.00;;;;;;;;5157914;27;8798;-83
2021/10/07 01:40:36;;;;;;;;;13.67;11.67;;;;;;;;5157958;27;8786;-82
2021/10/07 01:43:01;;;;;;;;;17.67;16.00;;;;;;;;5157924;27;8798;-83
2021/10/07 01:45:27;;;;;;;;;23.00;23.00;;;;;;;;5156381;27;8802;-82
2021/10/07 01:47:52;;;;;;;;;18.67;18.67;;;;;;;;5157920;27;8762;-83
2021/10/07 01:50:17;;;;;;;;;19.67;17.67;;;;;;;;5157548;27;8782;-83
2021/10/07 01:52:43;;;;;;;;;16.00;15.67;;;;;;;;5157753;27;9531;-83
2021/10/07 01:55:10;;;;;;;;;18.00;17.00;;;;;;;;5158626;27;8798;-83
2021/10/07 01:57:36;;;;;;;;;18.67;17.00;;;;;;;;5161471;27;8865;-83
2021/10/07 02:00:02;;;;;;;;;17.67;15.67;;;;;;;;5159916;27;8878;-82
2021/10/07 02:02:27;;;;;;;;;20.67;17.67;;;;;;;;5161254;27;8802;-82
2021/10/07 02:04:52;;;;;;;;;15.33;13.33;;;;;;;;5161215;27;9596;-82
2021/10/07 02:07:17;;;;;;;;;15.00;15.00;;;;;;;;5161183;27;8806;-82
2021/10/07 02:09:42;;;;;;;;;14.67;14.67;;;;;;;;5159837;27;8806;-82
2021/10/07 02:12:08;;;;;;;;;9.67;9.67;;;;;;;;5161095;27;8790;-83
2021/10/07 02:14:33;;;;;;;;;13.00;13.00;;;;;;;;5160894;27;8833;-82
2021/10/07 02:16:58;;;;;;;;;12.33;11.33;;;;;;;;5159585;27;8805;-83
2021/10/07 02:19:24;;;;;;;;;11.67;11.33;;;;;;;;5161234;27;8801;-83
2021/10/07 02:21:49;;;;;;;;;13.33;13.33;;;;;;;;5160791;27;8829;-82
2021/10/07 02:24:14;;;;;;;;;11.33;11.00;;;;;;;;5159462;27;8914;-82
2021/10/07 02:26:39;;;;;;;;;12.00;11.67;;;;;;;;5160971;27;8754;-82
2021/10/07 02:29:05;;;;;;;;;10.00;10.00;;;;;;;;5160883;27;8793;-82
2021/10/07 02:31:31;;;;;;;;;14.33;12.00;;;;;;;;5141497;27;8789;-82
2021/10/07 02:33:56;;;;;;;;;12.00;11.33;;;;;;;;5140067;27;10887;-82
2021/10/07 02:36:22;;;;;;;;;13.00;13.00;;;;;;;;5139977;27;8792;-82
2021/10/07 02:38:47;;;;;;;;;12.00;12.00;;;;;;;;5138727;27;8789;-82
2021/10/07 02:41:12;;;;;;;;;12.33;12.00;;;;;;;;5139729;27;10990;-83
2021/10/07 02:43:38;;;;;;;;;13.33;11.33;;;;;;;;5138352;27;8803;-82
2021/10/07 02:46:03;;;;;;;;;9.67;8.33;;;;;;;;5139840;27;8804;-82
2021/10/07 02:48:28;;;;;;;;;10.00;10.00;;;;;;;;5139778;27;9723;-82
2021/10/07 02:50:53;;;;;;;;;16.00;13.67;;;;;;;;5139809;27;8847;-83
2021/10/07 02:53:19;;;;;;;;;16.33;16.00;;;;;;;;5139593;27;8784;-82
2021/10/07 02:55:44;;;;;;;;;18.00;18.00;;;;;;;;5139515;27;8899;-82
2021/10/07 02:58:09;;;;;;;;;13.00;13.00;;;;;;;;5138069;27;8788;-82
2021/10/07 03:00:35;;;;;;;;;12.67;12.00;;;;;;;;5139631;27;8800;-82
2021/10/07 03:03:01;;;;;;;;;18.00;16.75;;;;;;;;5139512;27;9716;-82
2021/10/07 03:05:26;;;;;;;;;14.00;12.67;;;;;;;;5139304;27;8788;-82
2021/10/07 03:07:51;;;;;;;;;14.67;14.67;;;;;;;;5139588;27;8784;-82
2021/10/07 03:10:17;;;;;;;;;17.33;17.33;;;;;;;;5139365;27;8869;-82
2021/10/07 03:12:42;;;;;;;;;16.00;15.67;;;;;;;;5137899;27;8804;-82
2021/10/07 03:15:07;;;;;;;;;13.00;13.00;;;;;;;;5137861;27;8877;-82
2021/10/07 03:17:33;;;;;;;;;15.00;14.33;;;;;;;;5139244;27;8812;-82
2021/10/07 03:19:58;;;;;;;;;12.33;11.67;;;;;;;;5139312;27;8800;-82
2021/10/07 03:22:23;;;;;;;;;13.67;13.00;;;;;;;;5137588;27;8824;-82
2021/10/07 03:24:48;;;;;;;;;12.33;12.33;;;;;;;;5139312;27;8830;-82
2021/10/07 03:27:14;;;;;;;;;12.00;11.00;;;;;;;;5139271;27;8883;-82
2021/10/07 03:29:39;;;;;;;;;18.00;14.00;;;;;;;;5141863;27;8830;-82
2021/10/07 03:32:04;;;;;;;;;21.33;20.00;;;;;;;;5159962;27;8924;-82
2021/10/07 03:34:29;;;;;;;;;24.00;19.67;;;;;;;;5158522;27;8865;-82
2021/10/07 03:36:55;;;;;;;;;17.67;17.00;;;;;;;;5159878;27;8786;-82
2021/10/07 03:39:20;;;;;;;;;17.67;17.00;;;;;;;;5159857;27;9528;-82
2021/10/07 03:41:45;;;;;;;;;15.67;14.00;;;;;;;;5158133;27;8909;-82
2021/10/07 03:44:10;;;;;;;;;15.33;15.00;;;;;;;;5158177;27;8793;-82
2021/10/07 03:46:36;;;;;;;;;15.00;14.33;;;;;;;;5159770;27;8762;-82
2021/10/07 03:49:01;;;;;;;;;13.33;13.33;;;;;;;;5159461;27;8789;-82
2021/10/07 03:51:26;;;;;;;;;14.67;14.33;;;;;;;;5159497;27;8826;-82
2021/10/07 03:53:52;;;;;;;;;16.00;15.00;;;;;;;;5158049;27;9632;-82
2021/10/07 03:56:17;;;;;;;;;17.67;14.00;;;;;;;;5159476;27;8858;-82
2021/10/07 03:58:42;;;;;;;;;11.67;11.67;;;;;;;;5159465;27;8793;-82
2021/10/07 04:01:07;;;;;;;;;13.67;13.33;;;;;;;;5158031;27;8802;-82
2021/10/07 04:03:33;;;;;;;;;15.00;15.00;;;;;;;;5159516;27;8774;-81
2021/10/07 04:05:58;;;;;;;;;16.33;16.00;;;;;;;;5159361;27;8883;-82
2021/10/07 04:08:23;;;;;;;;;15.00;13.67;;;;;;;;5159302;27;8790;-81
2021/10/07 04:10:51;;;;;;;;;12.33;12.00;;;;;;;;5159126;27;8804;-82
2021/10/07 04:13:18;;;;;;;;;20.67;20.00;;;;;;;;5158879;27;10301;-81
2021/10/07 04:15:43;;;;;;;;;20.00;17.33;;;;;;;;5159139;27;9880;-82
2021/10/07 04:18:09;;;;;;;;;21.67;21.67;;;;;;;;5156869;27;8882;-81
2021/10/07 04:20:34;;;;;;;;;19.67;19.00;;;;;;;;5159047;27;8782;-82
2021/10/07 04:22:59;;;;;;;;;19.00;18.33;;;;;;;;5158945;27;8806;-82
2021/10/07 04:25:24;;;;;;;;;18.00;18.00;;;;;;;;5159067;27;8847;-82
2021/10/07 04:27:55;;;;;;;;;14.00;14.00;;;;;;;;5157653;27;8806;-81
2021/10/07 04:30:21;;;;;;;;;16.67;15.67;;;;;;;;5149668;27;8792;-81
2021/10/07 04:32:46;;;;;;;;;16.33;15.00;;;;;;;;5138218;27;9050;-82
2021/10/07 04:35:11;;;;;;;;;16.00;16.00;;;;;;;;5138213;27;8807;-82
2021/10/07 04:37:36;;;;;;;;;17.67;16.67;;;;;;;;5137936;27;8806;-82
2021/10/07 04:40:02;;;;;;;;;17.33;16.33;;;;;;;;5138033;27;9563;-82
2021/10/07 04:42:27;;;;;;;;;14.00;14.00;;;;;;;;5137977;27;8797;-81
2021/10/07 04:44:52;;;;;;;;;11.67;11.67;;;;;;;;5137789;27;8785;-81
2021/10/07 04:47:17;;;;;;;;;16.00;16.00;;;;;;;;5138022;27;8804;-82
2021/10/07 04:49:43;;;;;;;;;14.33;13.67;;;;;;;;5136334;27;8885;-81
2021/10/07 04:52:08;;;;;;;;;14.00;14.00;;;;;;;;5137831;27;8788;-82
2021/10/07 04:54:33;;;;;;;;;12.67;12.67;;;;;;;;5137881;27;8788;-82
2021/10/07 04:56:58;;;;;;;;;14.67;12.00;;;;;;;;5137873;27;8805;-81
2021/10/07 04:59:24;;;;;;;;;12.33;12.33;;;;;;;;5136102;27;8824;-84
2021/10/07 05:01:49;;;;;;;;;11.33;11.33;;;;;;;;5137399;27;8804;-84
2021/10/07 05:04:14;;;;;;;;;12.67;11.00;;;;;;;;5137887;27;8796;-84
2021/10/07 05:06:39;;;;;;;;;11.67;9.00;;;;;;;;5138092;27;8786;-84
2021/10/07 05:09:04;;;;;;;;;14.00;13.67;;;;;;;;5138400;27;8895;-83
2021/10/07 05:11:30;;;;;;;;;12.00;12.00;;;;;;;;5139114;27;9678;-83
2021/10/07 05:13:55;;;;;;;;;15.67;13.00;;;;;;;;5138145;27;8780;-82
2021/10/07 05:16:20;;;;;;;;;15.00;13.33;;;;;;;;5137708;27;9619;-82
2021/10/07 05:18:45;;;;;;;;;15.67;15.67;;;;;;;;5135980;27;8813;-82
2021/10/07 05:21:11;;;;;;;;;17.33;13.33;;;;;;;;5137280;27;8765;-81
2021/10/07 05:23:36;;;;;;;;;16.67;14.00;;;;;;;;5136563;27;8792;-80
2021/10/07 05:26:01;;;;;;;;;14.67;14.00;;;;;;;;5136343;27;8815;-81
2021/10/07 05:28:27;;;;;;;;;13.00;11.67;;;;;;;;5137356;27;8879;-82
2021/10/07 05:30:53;;;;;;;;;14.67;14.67;;;;;;;;5154624;27;8801;-81
2021/10/07 05:33:20;;;;;;;;;11.00;10.00;;;;;;;;5161651;27;8889;-81
2021/10/07 05:35:45;;;;;;;;;15.33;13.67;;;;;;;;5162005;27;8750;-81
2021/10/07 05:38:10;;;;;;;;;13.67;13.67;;;;;;;;5160069;27;9735;-81
2021/10/07 05:40:35;;;;;;;;;16.00;16.00;;;;;;;;5161767;27;8810;-81
2021/10/07 05:43:01;;;;;;;;;15.00;15.00;;;;;;;;5161410;27;8822;-81
2021/10/07 05:45:26;;;;;;;;;13.33;13.33;;;;;;;;5161543;27;8888;-81
2021/10/07 05:47:51;;;;;;;;;12.33;11.33;;;;;;;;5161665;27;8790;-80
2021/10/07 05:50:16;;;;;;;;;13.00;13.00;;;;;;;;5159998;27;8802;-82
2021/10/07 05:52:41;;;;;;;;;15.00;12.33;;;;;;;;5161483;27;8777;-82
2021/10/07 05:55:08;;;;;;;;;19.67;19.00;;;;;;;;5162090;27;8778;-82
2021/10/07 05:57:33;;;;;;;;;24.33;22.33;;;;;;;;5162237;27;8698;-82
2021/10/07 05:59:58;;;;;;;;;30.00;26.00;;;;;;;;5162536;27;10252;-82
2021/10/07 06:02:23;;;;;;;;;30.00;28.50;;;;;;;;5162811;27;8790;-80
2021/10/07 06:04:49;;;;;;;;;26.00;25.67;;;;;;;;5161922;27;8890;-83
2021/10/07 06:07:14;;;;;;;;;36.25;33.75;;;;;;;;5161457;27;8782;-83
2021/10/07 06:09:39;;;;;;;;;32.25;31.00;;;;;;;;5161421;27;8810;-83
2021/10/07 06:12:04;;;;;;;;;34.00;33.00;;;;;;;;5161224;27;8817;-85
2021/10/07 06:14:30;;;;;;;;;26.00;23.67;;;;;;;;5161173;27;8852;-84
2021/10/07 06:16:55;;;;;;;;;24.00;22.33;;;;;;;;5161968;27;8829;-84
2021/10/07 06:19:23;;;;;;;;;24.33;23.00;;;;;;;;5162001;27;8786;-83
2021/10/07 06:21:52;;;;;;;;;21.00;19.00;;;;;;;;5161866;27;8868;-85
2021/10/07 06:24:17;;;;;;;;;22.33;22.33;;;;;;;;5160334;27;9328;-82
2021/10/07 06:26:43;;;;;;;;;22.00;20.67;;;;;;;;5160816;27;9410;-82
2021/10/07 06:29:09;;;;;;;;;18.00;18.00;;;;;;;;5161097;27;8876;-84
2021/10/07 06:31:34;;;;;;;;;24.00;20.33;;;;;;;;5143763;27;9559;-84
2021/10/07 06:34:00;;;;;;;;;18.67;18.67;;;;;;;;5139908;27;8816;-85
2021/10/07 06:36:25;;;;;;;;;18.33;17.00;;;;;;;;5140594;27;8869;-84
2021/10/07 06:38:50;;;;;;;;;21.33;20.67;;;;;;;;5140981;27;8788;-84
2021/10/07 06:41:17;;;;;;;;;19.67;18.67;;;;;;;;5139882;27;8873;-84
2021/10/07 06:43:43;;;;;;;;;21.67;20.33;;;;;;;;5139757;27;8838;-82
2021/10/07 06:46:08;;;;;;;;;20.33;19.33;;;;;;;;5139938;27;9516;-82
2021/10/07 06:48:34;;;;;;;;;18.67;15.00;;;;;;;;5138435;27;8793;-83
2021/10/07 06:50:59;;;;;;;;;23.00;20.00;;;;;;;;5142737;27;8796;-84
2021/10/07 06:53:25;;;;;;;;;24.33;20.33;;;;;;;;5140773;27;9185;-83
2021/10/07 06:55:50;;;;;;;;;20.00;20.00;;;;;;;;5140289;27;8796;-84
2021/10/07 06:58:17;;;;;;;;;23.50;22.25;;;;;;;;5138750;27;8889;-83
2021/10/07 07:00:42;;;;;;;;;24.33;23.00;;;;;;;;5138686;27;8834;-84
2021/10/07 07:03:08;;;;;;;;;23.33;21.33;;;;;;;;5140593;27;9420;-83
2021/10/07 07:05:33;;;;;;;;;25.67;25.33;;;;;;;;5139986;27;9573;-83
2021/10/07 07:07:58;;;;;;;;;26.00;24.33;;;;;;;;5139288;27;8812;-83
2021/10/07 07:10:24;;;;;;;;;27.67;27.33;;;;;;;;5140704;27;8788;-84
2021/10/07 07:12:50;;;;;;;;;29.00;26.67;;;;;;;;5139511;27;8818;-83
2021/10/07 07:15:16;;;;;;;;;30.00;27.67;;;;;;;;5142011;27;8895;-82
2021/10/07 07:17:41;;;;;;;;;27.00;26.33;;;;;;;;5142733;27;9506;-86
2021/10/07 07:20:07;;;;;;;;;31.00;29.50;;;;;;;;5139430;27;8843;-84
2021/10/07 07:22:32;;;;;;;;;34.75;31.75;;;;;;;;5140576;27;8871;-81
2021/10/07 07:24:58;;;;;;;;;31.25;30.25;;;;;;;;5139165;27;9233;-84
2021/10/07 07:27:23;;;;;;;;;28.67;26.00;;;;;;;;5140875;27;8765;-83
2021/10/07 07:29:48;;;;;;;;;26.67;25.00;;;;;;;;5144233;27;8829;-84
2021/10/07 07:32:14;;;;;;;;;26.33;26.33;;;;;;;;5162428;27;8823;-84
2021/10/07 07:34:39;;;;;;;;;27.00;26.67;;;;;;;;5162843;27;8878;-84
2021/10/07 07:37:04;;;;;;;;;28.00;26.33;;;;;;;;5161142;27;8790;-84
2021/10/07 07:39:30;;;;;;;;;27.67;26.00;;;;;;;;5152584;27;9672;-84
2021/10/07 07:41:55;;;;;;;;;28.00;27.33;;;;;;;;5129693;27;8939;-83
2021/10/07 07:44:21;;;;;;;;;40.75;33.00;;;;;;;;5126349;27;8799;-83
2021/10/07 07:46:46;;;;;;;;;44.00;35.25;;;;;;;;5124552;27;8809;-81
2021/10/07 07:49:11;;;;;;;;;33.75;31.50;;;;;;;;5120132;28;9396;-83
2021/10/07 07:51:36;;;;;;;;;38.25;32.50;;;;;;;;5123061;27;8803;-84
2021/10/07 07:54:02;;;;;;;;;42.75;35.75;;;;;;;;5125473;27;9600;-82
2021/10/07 07:56:27;;;;;;;;;39.00;34.25;;;;;;;;5127666;27;9540;-82
2021/10/07 07:58:53;;;;;;;;;43.75;36.00;;;;;;;;5126851;27;8821;-82
2021/10/07 08:01:19;;;;;;;;;39.50;34.00;;;;;;;;5126351;27;8930;-85
2021/10/07 08:03:44;;;;;;;;;45.25;36.75;;;;;;;;5128121;27;8815;-83
2021/10/07 08:06:09;;;;;;;;;45.00;36.25;;;;;;;;5126422;27;8810;-85
2021/10/07 08:08:35;;;;;;;;;50.75;38.25;;;;;;;;5124459;27;8850;-84
2021/10/07 08:11:00;;;;;;;;;55.75;45.00;;;;;;;;5117887;27;8771;-83
2021/10/07 08:13:25;;;;;;;;;52.75;41.00;;;;;;;;5117584;27;8807;-83
2021/10/07 08:15:51;;;;;;;;;49.25;39.75;;;;;;;;5117991;27;8778;-83
2021/10/07 08:18:17;;;;;;;;;39.00;32.67;;;;;;;;5118060;27;8763;-83
2021/10/07 08:20:42;;;;;;;;;30.67;29.00;;;;;;;;5120530;27;9505;-82
2021/10/07 08:23:11;;;;;;;;;28.67;28.67;;;;;;;;5121363;27;8829;-82
2021/10/07 08:25:36;;;;;;;;;38.00;31.67;;;;;;;;5119694;27;8813;-83
2021/10/07 08:28:02;;;;;;;;;30.00;28.00;;;;;;;;5127868;27;9336;-83
2021/10/07 08:30:27;;;;;;;;;23.33;22.33;;;;;;;;5130617;27;8831;-84
2021/10/07 08:32:52;;;;;;;;;24.67;23.67;;;;;;;;5139114;27;8784;-82
2021/10/07 08:35:18;;;;;;;;;28.00;25.33;;;;;;;;5138426;27;9664;-84
2021/10/07 08:37:43;;;;;;;;;26.00;25.00;;;;;;;;5138079;27;8803;-84
2021/10/07 08:40:10;;;;;;;;;27.67;24.33;;;;;;;;5136261;27;8842;-85
2021/10/07 08:42:36;;;;;;;;;27.33;22.33;;;;;;;;5136634;27;8912;-82
2021/10/07 08:45:03;;;;;;;;;24.33;23.67;;;;;;;;5136475;27;10033;-83
2021/10/07 08:47:28;;;;;;;;;24.33;22.67;;;;;;;;5136189;27;9090;-85
2021/10/07 08:49:53;;;;;;;;;25.67;24.00;;;;;;;;5137941;27;9188;-86
2021/10/07 08:52:20;;;;;;;;;22.33;21.33;;;;;;;;5138661;27;8817;-86
2021/10/07 08:54:45;;;;;;;;;21.00;21.00;;;;;;;;5140779;27;8865;-86
2021/10/07 08:57:11;;;;;;;;;25.00;24.33;;;;;;;;5139867;27;8958;-86
2021/10/07 08:59:36;;;;;;;;;23.00;23.00;;;;;;;;5140776;27;8820;-84
2021/10/07 09:02:07;;;;;;;;;22.33;19.33;;;;;;;;5140911;27;8962;-85
2021/10/07 09:04:33;;;;;;;;;17.75;17.50;;;;;;;;5136128;27;8759;-84
2021/10/07 09:07:08;;;;;;;;;27.33;25.67;;;;;;;;5138803;27;8717;-83
2021/10/07 09:09:35;;;;;;;;;31.00;29.00;;;;;;;;5137863;27;8992;-84
2021/10/07 09:12:05;;;;;;;;;32.00;27.67;;;;;;;;5136217;27;9142;-85
2021/10/07 09:14:35;;;;;;;;;26.00;26.00;;;;;;;;5136307;27;9121;-84
2021/10/07 09:17:01;;;;;;;;;21.75;20.00;;;;;;;;5137522;27;8847;-85
2021/10/07 09:19:30;;;;;;;;;19.33;17.67;;;;;;;;5137503;27;8772;-85
2021/10/07 09:21:57;;;;;;;;;34.75;28.75;;;;;;;;5137428;27;9218;-85
2021/10/07 09:24:25;;;;;;;;;31.67;25.00;;;;;;;;5136115;27;8844;-85
2021/10/07 09:26:50;;;;;;;;;32.67;31.00;;;;;;;;5137749;27;9085;-86
2021/10/07 09:29:16;;;;;;;;;33.00;31.00;;;;;;;;5138101;27;8877;-83
2021/10/07 09:31:42;;;;;;;;;25.00;23.67;;;;;;;;5160609;27;8802;-86
2021/10/07 09:34:08;;;;;;;;;19.25;17.50;;;;;;;;5159064;27;8784;-85
2021/10/07 09:36:34;;;;;;;;;15.33;14.00;;;;;;;;5156991;27;8865;-85
2021/10/07 09:39:01;;;;;;;;;12.67;12.00;;;;;;;;5158292;27;8817;-86
2021/10/07 09:41:29;;;;;;;;;11.00;11.00;;;;;;;;5158592;27;8754;-84
2021/10/07 09:43:56;;;;;;;;;19.50;18.25;;;;;;;;5156690;27;8828;-84
2021/10/07 09:46:40;;;;;;;;;22.00;20.25;;;;;;;;5158596;27;8774;-84
2021/10/07 09:49:09;;;;;;;;;16.00;11.00;;;;;;;;5157785;27;8797;-84
2021/10/07 09:51:45;;;;;;;;;11.75;10.50;;;;;;;;5158048;27;8770;-84
2021/10/07 09:54:10;;;;;;;;;10.25;9.25;;;;;;;;5156806;27;8793;-80
2021/10/07 09:56:36;;;;;;;;;8.00;7.00;;;;;;;;5156446;27;8824;-84
2021/10/07 09:59:09;;;;;;;;;9.50;9.50;;;;;;;;5157687;27;8766;-84
2021/10/07 10:01:34;;;;;;;;;9.50;9.25;;;;;;;;5157629;27;8806;-84
2021/10/07 10:04:00;;;;;;;;;8.33;8.33;;;;;;;;5158186;27;8769;-83
2021/10/07 10:06:25;;;;;;;;;5.67;5.67;;;;;;;;5158242;27;8794;-82
2021/10/07 10:08:52;;;;;;;;;8.00;7.00;;;;;;;;5159128;27;8797;-84
2021/10/07 10:11:19;;;;;;;;;5.75;5.75;;;;;;;;5158858;27;8703;-81
2021/10/07 10:13:46;;;;;;;;;4.25;4.25;;;;;;;;5156015;27;8862;-80
2021/10/07 10:16:11;;;;;;;;;5.50;5.50;;;;;;;;5158479;27;8785;-82
2021/10/07 10:18:37;;;;;;;;;6.67;5.33;;;;;;;;5160082;27;8809;-83
2021/10/07 10:21:04;;;;;;;;;7.67;6.00;;;;;;;;5161670;27;8770;-83
2021/10/07 10:23:30;;;;;;;;;6.25;4.25;;;;;;;;5160180;27;8874;-83
2021/10/07 10:26:00;;;;;;;;;6.25;4.25;;;;;;;;5163241;27;8758;-81
2021/10/07 10:28:35;;;;;;;;;6.50;6.50;;;;;;;;5149500;27;8791;-84
2021/10/07 10:31:01;;;;;;;;;4.25;3.75;;;;;;;;5147446;27;8798;-83
2021/10/07 10:33:27;;;;;;;;;5.25;4.25;;;;;;;;5161698;27;8722;-83
2021/10/07 10:35:53;;;;;;;;;5.50;4.75;;;;;;;;5161040;27;8755;-85
2021/10/07 10:38:18;;;;;;;;;4.33;4.33;;;;;;;;5160759;27;8774;-79
2021/10/07 10:40:43;;;;;;;;;5.67;5.67;;;;;;;;5160728;27;8786;-80
2021/10/07 10:43:18;;;;;;;;;6.00;5.00;;;;;;;;5159012;27;8836;-80
2021/10/07 10:46:08;;;;;;;;;2.25;2.25;;;;;;;;5161015;27;8776;-79
2021/10/07 10:48:49;;;;;;;;;5.00;4.00;;;;;;;;5160816;27;8762;-85
2021/10/07 10:51:15;;;;;;;;;5.75;5.75;;;;;;;;5159456;27;8790;-81
2021/10/07 10:53:58;;;;;;;;;5.00;5.00;;;;;;;;5161288;27;8808;-83
2021/10/07 10:56:23;;;;;;;;;4.25;3.75;;;;;;;;5160576;27;8858;-83
2021/10/07 10:59:11;;;;;;;;;4.00;2.00;;;;;;;;5160589;27;8774;-83
2021/10/07 11:01:37;;;;;;;;;3.00;3.00;;;;;;;;5160326;27;8936;-83
2021/10/07 11:04:08;;;;;;;;;4.33;2.33;;;;;;;;5160353;27;8877;-79
2021/10/07 11:06:53;;;;;;;;;3.25;3.25;;;;;;;;5158915;27;8905;-78
2021/10/07 11:09:39;;;;;;;;;2.25;2.25;;;;;;;;5160401;27;8769;-82
2021/10/07 11:12:04;;;;;;;;;3.00;3.00;;;;;;;;5158503;27;8808;-81
2021/10/07 11:14:30;;;;;;;;;3.33;3.33;;;;;;;;5160603;27;8897;-79
2021/10/07 11:16:55;;;;;;;;;3.33;2.00;;;;;;;;5158837;27;8789;-79
2021/10/07 11:19:21;;;;;;;;;2.00;2.00;;;;;;;;5158727;27;8782;-82
2021/10/07 11:21:46;;;;;;;;;2.33;2.00;;;;;;;;5160366;27;9565;-82
2021/10/07 11:24:15;;;;;;;;;1.33;1.33;;;;;;;;5158626;27;8832;-81
2021/10/07 11:26:40;;;;;;;;;2.00;2.00;;;;;;;;5160248;27;8762;-83
2021/10/07 11:29:08;;;;;;;;;2.00;2.00;;;;;;;;5160714;27;8809;-82
2021/10/07 11:31:33;;;;;;;;;2.00;2.00;;;;;;;;5142956;27;8785;-81
2021/10/07 11:34:00;;;;;;;;;3.00;2.00;;;;;;;;5137835;27;8796;-80
2021/10/07 11:36:27;;;;;;;;;1.25;1.25;;;;;;;;5139088;27;8757;-80
2021/10/07 11:38:53;;;;;;;;;3.00;2.50;;;;;;;;5139411;27;8791;-81
2021/10/07 11:41:20;;;;;;;;;2.00;2.00;;;;;;;;5143438;27;8761;-81
2021/10/07 11:43:46;;;;;;;;;7.00;5.50;;;;;;;;5143022;27;8889;-83
2021/10/07 11:46:13;;;;;;;;;7.00;7.00;;;;;;;;5143816;27;8875;-80
2021/10/07 11:48:49;;;;;;;;;26.75;20.75;;;;;;;;5144678;27;8803;-81
2021/10/07 11:51:33;;;;;;;;;6.00;6.00;;;;;;;;5141468;27;8790;-83
2021/10/07 11:54:05;;;;;;;;;18.50;17.75;;;;;;;;5140938;27;8764;-83
2021/10/07 11:56:32;;;;;;;;;18.75;17.00;;;;;;;;5142397;27;8752;-84
2021/10/07 11:59:01;;;;;;;;;3.25;2.25;;;;;;;;5142380;27;8773;-80
2021/10/07 12:01:30;;;;;;;;;1.25;1.25;;;;;;;;5136955;27;8781;-80
2021/10/07 12:03:57;;;;;;;;;1.25;1.25;;;;;;;;5142434;27;8757;-84
2021/10/07 12:06:22;;;;;;;;;1.00;1.00;;;;;;;;5140509;27;8764;-79
2021/10/07 12:08:48;;;;;;;;;1.00;1.00;;;;;;;;5142785;27;8779;-79
2021/10/07 12:11:14;;;;;;;;;2.00;1.67;;;;;;;;5141652;27;9598;-79
2021/10/07 12:13:40;;;;;;;;;4.00;2.50;;;;;;;;5140642;27;8785;-81
2021/10/07 12:16:09;;;;;;;;;1.25;1.25;;;;;;;;5139784;27;8907;-80
2021/10/07 12:18:36;;;;;;;;;2.50;2.50;;;;;;;;5141810;27;8897;-81
2021/10/07 12:21:05;;;;;;;;;0.75;0.25;;;;;;;;5137054;27;8804;-80
2021/10/07 12:23:44;;;;;;;;;1.50;1.50;;;;;;;;5138652;27;8832;-81
2021/10/07 12:26:09;;;;;;;;;30.50;25.00;;;;;;;;5138800;27;8815;-84
2021/10/07 12:28:40;;;;;;;;;3.33;2.33;;;;;;;;5134890;27;8804;-82
2021/10/07 12:31:05;;;;;;;;;3.25;2.50;;;;;;;;5139642;27;8767;-82
2021/10/07 12:33:32;;;;;;;;;4.33;3.33;;;;;;;;5144449;27;9532;-81
2021/10/07 12:36:03;;;;;;;;;3.25;3.00;;;;;;;;5144942;27;8820;-81
2021/10/07 12:38:45;;;;;;;;;7.50;6.75;;;;;;;;5137706;27;8741;-80
2021/10/07 12:41:10;;;;;;;;;0.25;0.25;;;;;;;;5137816;27;8776;-80
2021/10/07 12:43:49;;;;;;;;;35.00;30.00;;;;;;;;5137163;27;8836;-80
2021/10/07 12:46:19;;;;;;;;;81.00;73.25;;;;;;;;5136530;27;8865;-81
2021/10/07 12:48:45;;;;;;;;;46.25;36.75;;;;;;;;5137763;27;10854;-82
2021/10/07 12:51:14;;;;;;;;;6.50;5.00;;;;;;;;5133067;27;8865;-81
2021/10/07 12:53:40;;;;;;;;;3.00;2.50;;;;;;;;5139361;27;8823;-83
2021/10/07 12:56:10;;;;;;;;;55.50;42.25;;;;;;;;5137645;27;9276;-80
2021/10/07 12:58:43;;;;;;;;;7.25;6.50;;;;;;;;5142748;27;8899;-80
2021/10/07 13:01:12;;;;;;;;;3.75;2.75;;;;;;;;5138716;27;8758;-78
2021/10/07 13:03:37;;;;;;;;;14.25;13.00;;;;;;;;5136073;27;8794;-79
2021/10/07 13:06:07;;;;;;;;;5.00;4.00;;;;;;;;5139100;27;8848;-79
2021/10/07 13:08:32;;;;;;;;;5.00;2.75;;;;;;;;5140915;27;8780;-80
2021/10/07 13:10:59;;;;;;;;;3.00;2.00;;;;;;;;5137251;27;8820;-80
2021/10/07 13:13:24;;;;;;;;;2.00;2.00;;;;;;;;5138466;27;8802;-79
2021/10/07 13:15:50;;;;;;;;;3.00;3.00;;;;;;;;5137864;27;8788;-83
2021/10/07 13:18:16;;;;;;;;;1.67;1.33;;;;;;;;5136316;27;8828;-84
2021/10/07 13:20:41;;;;;;;;;1.00;1.00;;;;;;;;5137993;27;8776;-82
2021/10/07 13:23:06;;;;;;;;;0.33;0.33;;;;;;;;5137468;27;9982;-81
2021/10/07 13:25:37;;;;;;;;;2.67;2.00;;;;;;;;5137399;27;8780;-82
2021/10/07 13:28:02;;;;;;;;;1.60;1.00;;;;;;;;5137179;27;8764;-82
2021/10/07 13:30:28;;;;;;;;;1.75;1.75;;;;;;;;5147229;27;8798;-80
2021/10/07 13:32:55;;;;;;;;;2.50;0.00;;;;;;;;5158143;27;8866;-81
2021/10/07 13:35:20;;;;;;;;;0.80;0.80;;;;;;;;5158021;27;8782;-78
2021/10/07 13:37:49;;;;;;;;;1.00;1.00;;;;;;;;5158077;27;8805;-81
2021/10/07 13:40:15;;;;;;;;;0.60;0.60;;;;;;;;5156666;27;8791;-81
2021/10/07 13:42:40;;;;;;;;;5.33;5.33;;;;;;;;5158885;27;8806;-81
2021/10/07 13:45:05;;;;;;;;;1.00;1.00;;;;;;;;5156595;27;8953;-81
2021/10/07 13:47:30;;;;;;;;;1.75;1.00;;;;;;;;5156375;27;8781;-82
2021/10/07 13:49:56;;;;;;;;;1.00;0.00;;;;;;;;5158498;27;8812;-83
2021/10/07 13:52:25;;;;;;;;;2.25;1.00;;;;;;;;5162389;27;9513;-82
2021/10/07 13:54:51;;;;;;;;;2.40;0.00;;;;;;;;5162173;27;8754;-80
2021/10/07 13:57:16;;;;;;;;;3.00;1.25;;;;;;;;5163866;27;8801;-85
2021/10/07 13:59:41;;;;;;;;;1.25;1.25;;;;;;;;5163745;27;8786;-83
2021/10/07 14:02:07;;;;;;;;;0.25;0.25;;;;;;;;5160275;27;8817;-83
2021/10/07 14:04:32;;;;;;;;;2.75;1.25;;;;;;;;5160354;27;8793;-83
2021/10/07 14:06:57;;;;;;;;;1.25;1.00;;;;;;;;5163552;27;8852;-83
2021/10/07 14:09:22;;;;;;;;;0.50;0.50;;;;;;;;5168927;27;8782;-83
2021/10/07 14:11:51;;;;;;;;;2.00;2.00;;;;;;;;5164365;27;8870;-84
2021/10/07 14:14:16;;;;;;;;;0.40;0.20;;;;;;;;5163054;27;8770;-80
2021/10/07 14:16:41;;;;;;;;;1.00;0.75;;;;;;;;5161219;27;8794;-79
2021/10/07 14:19:06;;;;;;;;;0.75;0.25;;;;;;;;5159521;27;8818;-81
2021/10/07 14:21:32;;;;;;;;;3.25;2.00;;;;;;;;5161358;27;8802;-81
2021/10/07 14:23:57;;;;;;;;;2.00;0.25;;;;;;;;5161050;27;8794;-82
2021/10/07 14:26:22;;;;;;;;;1.75;0.50;;;;;;;;5161171;27;8870;-80
2021/10/07 14:28:47;;;;;;;;;0.50;0.00;;;;;;;;5160819;27;8762;-81
2021/10/07 14:31:13;;;;;;;;;1.00;1.00;;;;;;;;5146159;27;8792;-83
2021/10/07 14:33:38;;;;;;;;;1.00;1.00;;;;;;;;5140554;27;8773;-83
2021/10/07 14:36:03;;;;;;;;;2.00;2.00;;;;;;;;5143148;27;8984;-83